sensor_id;sensor_type;location;lat;lon;timestamp;pressure;altitude;pressure_sealevel;temperature;humidity
48874;BME280;35220;46.204;5.220;2022-10-16T00:02:35;98520.41;;;19.66;58.37
48874;BME280;35220;46.204;5.220;2022-10-16T00:07:35;98528.66;;;19.73;58.12
48874;BME280;35220;46.204;5.220;2022-10-16T00:12:36;98532.59;;;19.75;58.13
48874;BME280;35220;46.204;5.220;2022-10-16T00:17:36;98534.25;;;19.71;58.29
48874;BME280;35220;46.204;5.220;2022-10-16T00:22:37;98536.13;;;19.71;58.01
48874;BME280;35220;46.204;5.220;2022-10-16T00:27:37;98522.44;;;19.69;58.03
48874;BME280;35220;46.204;5.220;2022-10-16T00:32:37;98542.31;;;19.66;58.26
48874;BME280;35220;46.204;5.220;2022-10-16T00:37:38;98538.44;;;19.64;58.50
48874;BME280;35220;46.204;5.220;2022-10-16T00:42:38;98552.28;;;19.61;58.53
48874;BME280;35220;46.204;5.220;2022-10-16T00:47:44;98548.56;;;19.62;58.75
48874;BME280;35220;46.204;5.220;2022-10-16T00:52:49;98549.31;;;19.53;59.12
48874;BME280;35220;46.204;5.220;2022-10-16T00:57:51;98539.84;;;19.52;58.96
48874;BME280;35220;46.204;5.220;2022-10-16T01:02:57;98542.00;;;19.50;58.88
48874;BME280;35220;46.204;5.220;2022-10-16T01:08:13;98550.56;;;19.56;58.41
48874;BME280;35220;46.204;5.220;2022-10-16T01:18:28;98546.66;;;19.53;58.69
48874;BME280;35220;46.204;5.220;2022-10-16T01:23:57;98544.78;;;19.45;59.14
48874;BME280;35220;46.204;5.220;2022-10-16T01:29:28;98536.84;;;19.45;59.08
48874;BME280;35220;46.204;5.220;2022-10-16T01:34:51;98546.19;;;19.43;58.96
48874;BME280;35220;46.204;5.220;2022-10-16T01:39:55;98542.78;;;19.42;58.96
48874;BME280;35220;46.204;5.220;2022-10-16T01:44:59;98563.91;;;19.42;58.77
48874;BME280;35220;46.204;5.220;2022-10-16T01:50:02;98578.53;;;19.48;58.41
48874;BME280;35220;46.204;5.220;2022-10-16T01:55:06;98570.59;;;19.48;58.22
48874;BME280;35220;46.204;5.220;2022-10-16T02:00:10;98567.63;;;19.41;58.53
48874;BME280;35220;46.204;5.220;2022-10-16T02:10:21;98552.56;;;19.33;58.30
48874;BME280;35220;46.204;5.220;2022-10-16T02:15:24;98554.22;;;19.29;58.24
48874;BME280;35220;46.204;5.220;2022-10-16T02:20:28;98555.81;;;19.30;58.32
48874;BME280;35220;46.204;5.220;2022-10-16T02:25:43;98548.31;;;19.23;58.44
48874;BME280;35220;46.204;5.220;2022-10-16T02:30:51;98559.19;;;19.22;58.38
48874;BME280;35220;46.204;5.220;2022-10-16T02:35:55;98562.94;;;19.21;58.59
48874;BME280;35220;46.204;5.220;2022-10-16T02:40:59;98556.50;;;19.13;58.82
48874;BME280;35220;46.204;5.220;2022-10-16T02:46:00;98564.59;;;19.16;58.66
48874;BME280;35220;46.204;5.220;2022-10-16T02:51:00;98572.50;;;19.08;58.59
48874;BME280;35220;46.204;5.220;2022-10-16T02:56:01;98584.31;;;19.10;58.67
48874;BME280;35220;46.204;5.220;2022-10-16T03:01:01;98588.03;;;19.09;58.79
48874;BME280;35220;46.204;5.220;2022-10-16T03:06:02;98589.59;;;19.10;58.59
48874;BME280;35220;46.204;5.220;2022-10-16T03:11:03;98602.16;;;19.05;58.80
48874;BME280;35220;46.204;5.220;2022-10-16T03:16:03;98598.31;;;19.11;58.38
48874;BME280;35220;46.204;5.220;2022-10-16T03:21:04;98583.69;;;19.05;58.68
48874;BME280;35220;46.204;5.220;2022-10-16T03:26:04;98577.13;;;19.02;58.56
48874;BME280;35220;46.204;5.220;2022-10-16T03:31:05;98578.22;;;19.01;58.74
48874;BME280;35220;46.204;5.220;2022-10-16T03:36:05;98572.13;;;18.92;59.08
48874;BME280;35220;46.204;5.220;2022-10-16T03:41:06;98572.66;;;18.80;59.45
48874;BME280;35220;46.204;5.220;2022-10-16T03:46:07;98574.03;;;18.77;59.50
48874;BME280;35220;46.204;5.220;2022-10-16T03:51:08;98570.47;;;18.73;59.60
48874;BME280;35220;46.204;5.220;2022-10-16T03:56:08;98551.16;;;18.64;59.96
48874;BME280;35220;46.204;5.220;2022-10-16T04:01:09;98551.94;;;18.65;59.93
48874;BME280;35220;46.204;5.220;2022-10-16T04:06:09;98552.25;;;18.63;60.17
48874;BME280;35220;46.204;5.220;2022-10-16T04:11:09;98551.47;;;18.62;60.32
48874;BME280;35220;46.204;5.220;2022-10-16T04:16:10;98554.41;;;18.61;60.31
48874;BME280;35220;46.204;5.220;2022-10-16T04:21:10;98556.56;;;18.59;60.57
48874;BME280;35220;46.204;5.220;2022-10-16T04:26:11;98565.44;;;18.63;60.29
48874;BME280;35220;46.204;5.220;2022-10-16T04:31:11;98570.06;;;18.57;60.55
48874;BME280;35220;46.204;5.220;2022-10-16T04:36:12;98561.03;;;18.50;61.31
48874;BME280;35220;46.204;5.220;2022-10-16T04:41:12;98570.34;;;18.56;61.45
48874;BME280;35220;46.204;5.220;2022-10-16T04:46:12;98579.22;;;18.60;60.93
48874;BME280;35220;46.204;5.220;2022-10-16T04:51:13;98579.66;;;18.53;61.64
48874;BME280;35220;46.204;5.220;2022-10-16T04:56:13;98587.09;;;18.51;61.43
48874;BME280;35220;46.204;5.220;2022-10-16T05:01:15;98577.91;;;18.49;61.93
48874;BME280;35220;46.204;5.220;2022-10-16T05:06:15;98567.06;;;18.50;62.10
48874;BME280;35220;46.204;5.220;2022-10-16T05:11:16;98569.06;;;18.45;62.06
48874;BME280;35220;46.204;5.220;2022-10-16T05:16:16;98567.50;;;18.43;62.42
48874;BME280;35220;46.204;5.220;2022-10-16T05:21:16;98584.13;;;18.44;62.23
48874;BME280;35220;46.204;5.220;2022-10-16T05:26:17;98592.69;;;18.50;62.02
48874;BME280;35220;46.204;5.220;2022-10-16T05:31:17;98592.69;;;18.50;62.38
48874;BME280;35220;46.204;5.220;2022-10-16T05:36:18;98595.03;;;18.51;62.35
48874;BME280;35220;46.204;5.220;2022-10-16T05:41:19;98596.38;;;18.49;63.10
48874;BME280;35220;46.204;5.220;2022-10-16T05:46:23;98614.75;;;18.54;62.37
48874;BME280;35220;46.204;5.220;2022-10-16T05:51:24;98616.66;;;18.62;61.88
48874;BME280;35220;46.204;5.220;2022-10-16T05:56:24;98629.84;;;18.62;62.02
48874;BME280;35220;46.204;5.220;2022-10-16T06:01:25;98639.19;;;18.68;61.95
48874;BME280;35220;46.204;5.220;2022-10-16T06:06:27;98644.47;;;18.68;62.02
48874;BME280;35220;46.204;5.220;2022-10-16T06:11:29;98636.38;;;18.65;61.99
48874;BME280;35220;46.204;5.220;2022-10-16T06:16:30;98642.25;;;18.61;62.02
48874;BME280;35220;46.204;5.220;2022-10-16T06:21:30;98669.69;;;18.74;61.50
48874;BME280;35220;46.204;5.220;2022-10-16T06:26:31;98655.88;;;18.77;61.16
48874;BME280;35220;46.204;5.220;2022-10-16T06:31:31;98660.84;;;18.79;61.24
48874;BME280;35220;46.204;5.220;2022-10-16T06:36:33;98678.06;;;18.76;61.06
48874;BME280;35220;46.204;5.220;2022-10-16T06:41:33;98684.50;;;18.84;60.85
48874;BME280;35220;46.204;5.220;2022-10-16T06:46:34;98697.41;;;18.86;60.78
48874;BME280;35220;46.204;5.220;2022-10-16T06:51:34;98685.78;;;18.87;60.66
48874;BME280;35220;46.204;5.220;2022-10-16T06:56:36;98679.41;;;18.88;60.54
48874;BME280;35220;46.204;5.220;2022-10-16T07:01:37;98683.34;;;18.99;60.42
48874;BME280;35220;46.204;5.220;2022-10-16T07:06:38;98687.84;;;18.98;60.50
48874;BME280;35220;46.204;5.220;2022-10-16T07:11:39;98668.13;;;18.96;60.41
48874;BME280;35220;46.204;5.220;2022-10-16T07:16:40;98671.06;;;18.94;60.12
48874;BME280;35220;46.204;5.220;2022-10-16T07:21:41;98674.84;;;19.02;59.78
48874;BME280;35220;46.204;5.220;2022-10-16T07:26:43;98685.44;;;19.11;59.42
48874;BME280;35220;46.204;5.220;2022-10-16T07:31:44;98691.19;;;19.13;59.47
48874;BME280;35220;46.204;5.220;2022-10-16T07:36:48;98702.97;;;19.29;59.13
48874;BME280;35220;46.204;5.220;2022-10-16T07:41:48;98724.31;;;19.50;58.69
48874;BME280;35220;46.204;5.220;2022-10-16T07:46:49;98734.63;;;19.61;57.96
48874;BME280;35220;46.204;5.220;2022-10-16T07:51:49;98738.94;;;19.79;57.81
48874;BME280;35220;46.204;5.220;2022-10-16T07:56:49;98740.06;;;19.87;57.41
48874;BME280;35220;46.204;5.220;2022-10-16T08:01:50;98739.91;;;19.92;57.02
48874;BME280;35220;46.204;5.220;2022-10-16T08:06:50;98734.81;;;19.96;56.91
48874;BME280;35220;46.204;5.220;2022-10-16T08:11:50;98727.44;;;19.84;56.62
48874;BME280;35220;46.204;5.220;2022-10-16T08:16:52;98738.00;;;19.84;57.14
48874;BME280;35220;46.204;5.220;2022-10-16T08:21:53;98760.44;;;19.86;56.71
48874;BME280;35220;46.204;5.220;2022-10-16T08:26:54;98755.34;;;19.99;56.77
48874;BME280;35220;46.204;5.220;2022-10-16T08:31:54;98765.47;;;20.05;56.53
48874;BME280;35220;46.204;5.220;2022-10-16T08:36:55;98765.94;;;20.16;56.13
48874;BME280;35220;46.204;5.220;2022-10-16T08:42:23;98751.19;;;20.15;55.22
48874;BME280;35220;46.204;5.220;2022-10-16T08:52:50;98779.38;;;20.37;54.63
48874;BME280;35220;46.204;5.220;2022-10-16T08:57:51;98767.28;;;20.45;53.87
48874;BME280;35220;46.204;5.220;2022-10-16T09:03:14;98785.63;;;20.59;53.35
48874;BME280;35220;46.204;5.220;2022-10-16T09:13:30;98780.53;;;20.80;52.92
48874;BME280;35220;46.204;5.220;2022-10-16T09:24:15;98784.59;;;20.95;52.44
48874;BME280;35220;46.204;5.220;2022-10-16T09:29:17;98781.16;;;21.12;52.17
48874;BME280;35220;46.204;5.220;2022-10-16T09:39:30;98796.41;;;21.32;50.97
48874;BME280;35220;46.204;5.220;2022-10-16T09:44:31;98784.84;;;21.37;50.73
48874;BME280;35220;46.204;5.220;2022-10-16T09:49:31;98776.28;;;21.49;50.34
48874;BME280;35220;46.204;5.220;2022-10-16T09:54:32;98800.13;;;21.57;50.35
48874;BME280;35220;46.204;5.220;2022-10-16T09:59:33;98777.28;;;21.74;49.96
48874;BME280;35220;46.204;5.220;2022-10-16T10:04:42;98787.53;;;21.84;49.47
48874;BME280;35220;46.204;5.220;2022-10-16T10:09:47;98773.66;;;21.87;49.67
48874;BME280;35220;46.204;5.220;2022-10-16T10:14:52;98783.13;;;21.97;49.30
48874;BME280;35220;46.204;5.220;2022-10-16T10:25:37;98774.16;;;22.10;48.63
48874;BME280;35220;46.204;5.220;2022-10-16T10:46:47;98779.59;;;22.44;48.23
48874;BME280;35220;46.204;5.220;2022-10-16T10:57:00;98778.25;;;22.58;47.59
48874;BME280;35220;46.204;5.220;2022-10-16T11:02:30;98773.13;;;22.74;46.46
48874;BME280;35220;46.204;5.220;2022-10-16T11:07:36;98768.06;;;22.82;45.58
48874;BME280;35220;46.204;5.220;2022-10-16T11:12:47;98772.00;;;22.96;45.21
48874;BME280;35220;46.204;5.220;2022-10-16T11:18:16;98771.88;;;23.14;45.43
48874;BME280;35220;46.204;5.220;2022-10-16T11:23:26;98764.16;;;23.21;45.13
48874;BME280;35220;46.204;5.220;2022-10-16T11:38:43;98759.09;;;23.41;44.70
48874;BME280;35220;46.204;5.220;2022-10-16T11:49:15;98707.13;;;23.56;44.25
48874;BME280;35220;46.204;5.220;2022-10-16T11:54:40;98735.41;;;23.72;44.14
48874;BME280;35220;46.204;5.220;2022-10-16T11:59:49;98735.44;;;23.85;43.37
48874;BME280;35220;46.204;5.220;2022-10-16T12:05:03;98738.00;;;23.94;43.24
48874;BME280;35220;46.204;5.220;2022-10-16T12:10:24;98745.16;;;24.18;43.48
48874;BME280;35220;46.204;5.220;2022-10-16T12:15:32;98735.19;;;24.15;42.54
48874;BME280;35220;46.204;5.220;2022-10-16T12:20:33;98729.19;;;30.02;32.33
48874;BME280;35220;46.204;5.220;2022-10-16T12:25:37;98714.72;;;33.14;28.50
48874;BME280;35220;46.204;5.220;2022-10-16T12:31:00;98712.66;;;34.09;25.90
48874;BME280;35220;46.204;5.220;2022-10-16T12:36:11;98676.84;;;34.32;25.28
48874;BME280;35220;46.204;5.220;2022-10-16T12:41:24;98697.44;;;36.15;23.60
48874;BME280;35220;46.204;5.220;2022-10-16T12:51:34;98714.09;;;35.53;24.30
48874;BME280;35220;46.204;5.220;2022-10-16T13:02:23;98707.50;;;34.53;25.75
48874;BME280;35220;46.204;5.220;2022-10-16T13:23:50;98709.88;;;31.96;30.05
48874;BME280;35220;46.204;5.220;2022-10-16T13:28:53;98725.31;;;30.98;32.13
48874;BME280;35220;46.204;5.220;2022-10-16T13:33:55;98736.28;;;30.36;33.11
48874;BME280;35220;46.204;5.220;2022-10-16T13:39:23;98727.25;;;31.80;31.13
48874;BME280;35220;46.204;5.220;2022-10-16T13:44:24;98731.44;;;31.92;31.17
48874;BME280;35220;46.204;5.220;2022-10-16T13:49:24;98729.81;;;33.53;29.17
48874;BME280;35220;46.204;5.220;2022-10-16T13:54:26;98749.00;;;33.21;29.44
48874;BME280;35220;46.204;5.220;2022-10-16T13:59:34;98723.09;;;33.27;29.13
48874;BME280;35220;46.204;5.220;2022-10-16T14:04:38;98751.00;;;30.74;33.15
48874;BME280;35220;46.204;5.220;2022-10-16T14:09:39;98738.50;;;30.19;34.13
48874;BME280;35220;46.204;5.220;2022-10-16T14:14:50;98739.03;;;29.28;35.39
48874;BME280;35220;46.204;5.220;2022-10-16T14:19:54;98752.13;;;30.62;33.30
48874;BME280;35220;46.204;5.220;2022-10-16T14:24:56;98745.34;;;31.37;31.89
48874;BME280;35220;46.204;5.220;2022-10-16T14:35:46;98769.50;;;30.90;32.81
48874;BME280;35220;46.204;5.220;2022-10-16T14:40:48;98769.63;;;30.24;34.06
48874;BME280;35220;46.204;5.220;2022-10-16T14:45:54;98745.75;;;30.08;34.41
48874;BME280;35220;46.204;5.220;2022-10-16T14:50:56;98751.84;;;29.12;35.84
48874;BME280;35220;46.204;5.220;2022-10-16T14:55:56;98744.31;;;28.84;36.21
48874;BME280;35220;46.204;5.220;2022-10-16T15:00:57;98749.38;;;28.28;37.06
48874;BME280;35220;46.204;5.220;2022-10-16T15:05:57;98738.50;;;27.18;39.21
48874;BME280;35220;46.204;5.220;2022-10-16T15:10:57;98757.25;;;27.41;38.79
48874;BME280;35220;46.204;5.220;2022-10-16T15:15:58;98759.97;;;27.67;37.88
48874;BME280;35220;46.204;5.220;2022-10-16T15:20:58;98757.50;;;26.70;39.83
48874;BME280;35220;46.204;5.220;2022-10-16T15:25:59;98745.81;;;25.72;41.37
48874;BME280;35220;46.204;5.220;2022-10-16T15:30:59;98756.41;;;25.36;42.11
48874;BME280;35220;46.204;5.220;2022-10-16T15:36:00;98751.66;;;25.30;41.92
48874;BME280;35220;46.204;5.220;2022-10-16T15:41:01;98747.16;;;24.74;42.62
48874;BME280;35220;46.204;5.220;2022-10-16T15:46:04;98761.16;;;24.71;42.77
48874;BME280;35220;46.204;5.220;2022-10-16T15:51:07;98758.63;;;24.49;43.45
48874;BME280;35220;46.204;5.220;2022-10-16T15:56:09;98760.31;;;24.42;43.13
48874;BME280;35220;46.204;5.220;2022-10-16T16:01:11;98767.34;;;24.22;43.82
48874;BME280;35220;46.204;5.220;2022-10-16T16:06:12;98765.47;;;23.98;44.25
48874;BME280;35220;46.204;5.220;2022-10-16T16:11:14;98770.88;;;23.77;44.68
48874;BME280;35220;46.204;5.220;2022-10-16T16:16:16;98770.09;;;23.76;44.51
48874;BME280;35220;46.204;5.220;2022-10-16T16:21:17;98782.78;;;23.91;43.88
48874;BME280;35220;46.204;5.220;2022-10-16T16:26:25;98791.03;;;23.65;45.01
48874;BME280;35220;46.204;5.220;2022-10-16T16:31:27;98818.06;;;23.55;45.34
48874;BME280;35220;46.204;5.220;2022-10-16T16:36:27;98816.25;;;23.34;46.13
48874;BME280;35220;46.204;5.220;2022-10-16T16:41:29;98823.06;;;23.23;46.39
48874;BME280;35220;46.204;5.220;2022-10-16T16:46:31;98827.69;;;23.14;46.51
48874;BME280;35220;46.204;5.220;2022-10-16T16:51:33;98829.25;;;22.94;47.79
48874;BME280;35220;46.204;5.220;2022-10-16T16:56:33;98829.81;;;22.78;48.40
48874;BME280;35220;46.204;5.220;2022-10-16T17:01:34;98826.78;;;22.68;49.07
48874;BME280;35220;46.204;5.220;2022-10-16T17:06:34;98835.25;;;22.61;49.32
48874;BME280;35220;46.204;5.220;2022-10-16T17:11:35;98854.16;;;22.59;48.59
48874;BME280;35220;46.204;5.220;2022-10-16T17:16:37;98865.31;;;22.53;49.98
48874;BME280;35220;46.204;5.220;2022-10-16T17:21:38;98870.19;;;22.42;49.78
48874;BME280;35220;46.204;5.220;2022-10-16T17:26:38;98883.03;;;22.31;50.51
48874;BME280;35220;46.204;5.220;2022-10-16T17:31:41;98883.06;;;22.23;51.60
48874;BME280;35220;46.204;5.220;2022-10-16T17:36:41;98900.06;;;22.21;51.05
48874;BME280;35220;46.204;5.220;2022-10-16T17:41:46;98921.47;;;22.16;51.17
48874;BME280;35220;46.204;5.220;2022-10-16T17:46:52;98923.84;;;22.09;52.32
48874;BME280;35220;46.204;5.220;2022-10-16T17:51:53;98923.25;;;22.03;51.59
48874;BME280;35220;46.204;5.220;2022-10-16T17:56:53;98939.63;;;21.97;52.36
48874;BME280;35220;46.204;5.220;2022-10-16T18:01:54;98943.25;;;21.92;52.46
48874;BME280;35220;46.204;5.220;2022-10-16T18:06:54;98947.28;;;21.90;52.97
48874;BME280;35220;46.204;5.220;2022-10-16T18:11:59;98954.34;;;21.86;53.00
48874;BME280;35220;46.204;5.220;2022-10-16T18:17:00;98964.66;;;21.78;52.88
48874;BME280;35220;46.204;5.220;2022-10-16T18:22:00;98977.28;;;21.73;52.93
48874;BME280;35220;46.204;5.220;2022-10-16T18:27:01;98974.63;;;21.64;54.01
48874;BME280;35220;46.204;5.220;2022-10-16T18:32:01;98964.50;;;21.57;54.22
48874;BME280;35220;46.204;5.220;2022-10-16T18:37:02;98967.44;;;21.56;54.63
48874;BME280;35220;46.204;5.220;2022-10-16T18:42:02;98980.09;;;21.50;54.35
48874;BME280;35220;46.204;5.220;2022-10-16T18:47:02;98984.94;;;21.48;54.47
48874;BME280;35220;46.204;5.220;2022-10-16T18:52:03;98972.25;;;21.36;55.49
48874;BME280;35220;46.204;5.220;2022-10-16T18:57:04;98963.53;;;21.27;55.94
48874;BME280;35220;46.204;5.220;2022-10-16T19:02:04;98965.53;;;21.21;56.62
48874;BME280;35220;46.204;5.220;2022-10-16T19:07:06;98982.53;;;21.20;56.23
48874;BME280;35220;46.204;5.220;2022-10-16T19:12:07;98991.88;;;21.18;56.22
48874;BME280;35220;46.204;5.220;2022-10-16T19:17:07;98996.38;;;21.17;55.82
48874;BME280;35220;46.204;5.220;2022-10-16T19:22:07;98995.88;;;21.06;56.53
48874;BME280;35220;46.204;5.220;2022-10-16T19:27:13;99004.91;;;20.97;56.89
48874;BME280;35220;46.204;5.220;2022-10-16T19:32:14;99003.31;;;20.87;56.76
48874;BME280;35220;46.204;5.220;2022-10-16T19:37:14;99012.66;;;20.84;57.28
48874;BME280;35220;46.204;5.220;2022-10-16T19:42:14;99028.34;;;20.72;57.49
48874;BME280;35220;46.204;5.220;2022-10-16T19:47:15;99021.78;;;20.69;57.94
48874;BME280;35220;46.204;5.220;2022-10-16T19:52:15;99034.13;;;20.51;58.59
48874;BME280;35220;46.204;5.220;2022-10-16T19:57:21;99032.69;;;20.45;58.68
48874;BME280;35220;46.204;5.220;2022-10-16T20:02:25;99021.28;;;20.36;59.33
48874;BME280;35220;46.204;5.220;2022-10-16T20:07:25;99030.72;;;20.28;60.56
48874;BME280;35220;46.204;5.220;2022-10-16T20:12:26;99020.44;;;20.27;60.48
48874;BME280;35220;46.204;5.220;2022-10-16T20:17:26;99025.56;;;20.23;59.95
48874;BME280;35220;46.204;5.220;2022-10-16T20:22:26;99013.06;;;20.15;61.29
48874;BME280;35220;46.204;5.220;2022-10-16T20:27:27;99011.03;;;20.12;61.35
48874;BME280;35220;46.204;5.220;2022-10-16T20:32:28;99010.53;;;20.10;61.31
48874;BME280;35220;46.204;5.220;2022-10-16T20:37:29;99025.75;;;20.04;61.80
48874;BME280;35220;46.204;5.220;2022-10-16T20:42:29;99021.72;;;20.07;62.17
48874;BME280;35220;46.204;5.220;2022-10-16T20:47:29;99022.66;;;20.11;61.77
48874;BME280;35220;46.204;5.220;2022-10-16T20:52:33;99029.06;;;20.10;62.57
48874;BME280;35220;46.204;5.220;2022-10-16T20:57:33;99016.84;;;20.00;62.99
48874;BME280;35220;46.204;5.220;2022-10-16T21:02:34;99022.00;;;20.05;62.33
48874;BME280;35220;46.204;5.220;2022-10-16T21:07:34;99029.88;;;19.97;63.48
48874;BME280;35220;46.204;5.220;2022-10-16T21:12:35;99029.09;;;19.96;64.34
48874;BME280;35220;46.204;5.220;2022-10-16T21:17:35;99035.78;;;19.93;64.48
48874;BME280;35220;46.204;5.220;2022-10-16T21:22:36;99045.47;;;19.98;63.53
48874;BME280;35220;46.204;5.220;2022-10-16T21:27:38;99046.66;;;19.92;64.86
48874;BME280;35220;46.204;5.220;2022-10-16T21:32:38;99047.63;;;19.96;64.19
48874;BME280;35220;46.204;5.220;2022-10-16T21:37:39;99041.38;;;19.92;64.99
48874;BME280;35220;46.204;5.220;2022-10-16T21:42:39;99050.19;;;19.87;65.03
48874;BME280;35220;46.204;5.220;2022-10-16T21:47:39;99056.75;;;19.90;64.65
48874;BME280;35220;46.204;5.220;2022-10-16T21:52:40;99055.97;;;19.89;64.96
48874;BME280;35220;46.204;5.220;2022-10-16T21:57:40;99062.75;;;19.82;65.68
48874;BME280;35220;46.204;5.220;2022-10-16T22:02:40;99065.88;;;19.84;65.54
48874;BME280;35220;46.204;5.220;2022-10-16T22:07:41;99073.13;;;19.78;65.85
48874;BME280;35220;46.204;5.220;2022-10-16T22:12:41;99071.88;;;19.75;66.20
48874;BME280;35220;46.204;5.220;2022-10-16T22:17:41;99076.16;;;19.71;66.95
48874;BME280;35220;46.204;5.220;2022-10-16T22:22:42;99078.50;;;19.73;66.67
48874;BME280;35220;46.204;5.220;2022-10-16T22:27:42;99077.84;;;19.67;66.60
48874;BME280;35220;46.204;5.220;2022-10-16T22:32:43;99080.78;;;19.66;66.84
48874;BME280;35220;46.204;5.220;2022-10-16T22:37:43;99075.59;;;19.61;67.86
48874;BME280;35220;46.204;5.220;2022-10-16T22:42:43;99075.88;;;19.59;67.55
48874;BME280;35220;46.204;5.220;2022-10-16T22:47:44;99074.16;;;19.54;68.09
48874;BME280;35220;46.204;5.220;2022-10-16T22:52:44;99079.13;;;19.56;67.38
48874;BME280;35220;46.204;5.220;2022-10-16T22:57:45;99085.78;;;19.53;67.56
48874;BME280;35220;46.204;5.220;2022-10-16T23:02:45;99079.34;;;19.46;68.98
48874;BME280;35220;46.204;5.220;2022-10-16T23:07:45;99084.34;;;19.47;68.44
48874;BME280;35220;46.204;5.220;2022-10-16T23:12:46;99077.09;;;19.39;68.83
48874;BME280;35220;46.204;5.220;2022-10-16T23:17:46;99076.59;;;19.37;68.95
48874;BME280;35220;46.204;5.220;2022-10-16T23:22:47;99080.31;;;19.36;68.93
48874;BME280;35220;46.204;5.220;2022-10-16T23:27:47;99071.81;;;19.39;68.31
48874;BME280;35220;46.204;5.220;2022-10-16T23:32:48;99074.34;;;19.30;69.53
48874;BME280;35220;46.204;5.220;2022-10-16T23:37:49;99079.94;;;19.29;69.12
48874;BME280;35220;46.204;5.220;2022-10-16T23:42:50;99084.53;;;19.23;70.07
48874;BME280;35220;46.204;5.220;2022-10-16T23:47:50;99094.50;;;19.26;69.30
48874;BME280;35220;46.204;5.220;2022-10-16T23:52:51;99095.88;;;19.24;69.50
